createdAt,value
2022-08-23T00:01:35.762Z,14.95
2022-08-23T00:04:16.381Z,14.93
2022-08-23T00:06:50.945Z,14.88
2022-08-23T00:09:20.321Z,14.87
2022-08-23T00:11:51.847Z,14.87
2022-08-23T00:14:23.861Z,14.83
2022-08-23T00:16:52.847Z,14.78
2022-08-23T00:19:24.168Z,14.77
2022-08-23T00:21:56.539Z,14.56
2022-08-23T00:24:26.726Z,14.73
2022-08-23T00:26:59.786Z,14.70
2022-08-23T00:29:31.410Z,14.65
2022-08-23T00:32:00.556Z,14.64
2022-08-23T00:34:29.995Z,14.55
2022-08-23T00:37:00.126Z,14.46
2022-08-23T00:39:29.038Z,14.49
2022-08-23T00:42:00.985Z,14.55
2022-08-23T00:44:51.692Z,14.06
2022-08-23T00:47:43.055Z,14.49
2022-08-23T00:50:24.120Z,14.19
2022-08-23T00:53:03.522Z,14.41
2022-08-23T00:55:33.112Z,14.40
2022-08-23T00:58:02.514Z,14.36
2022-08-23T01:00:32.381Z,14.35
2022-08-23T01:03:01.573Z,13.94
2022-08-23T01:05:37.861Z,14.29
2022-08-23T01:08:07.941Z,14.13
2022-08-23T01:11:00.694Z,14.20
2022-08-23T01:13:38.471Z,14.16
2022-08-23T01:16:11.828Z,13.84
2022-08-23T01:18:42.662Z,13.52
2022-08-23T01:21:16.429Z,14.04
2022-08-23T01:23:48.345Z,13.90
2022-08-23T01:26:21.992Z,13.96
2022-08-23T01:28:51.379Z,13.98
2022-08-23T01:31:23.431Z,13.98
2022-08-23T01:33:58.779Z,13.95
2022-08-23T01:36:28.421Z,13.90
2022-08-23T01:38:58.687Z,13.88
2022-08-23T01:41:27.756Z,13.84
2022-08-23T01:43:56.354Z,13.83
2022-08-23T01:46:26.404Z,13.83
2022-08-23T01:48:55.969Z,13.82
2022-08-23T01:51:24.609Z,13.78
2022-08-23T01:53:53.501Z,13.78
2022-08-23T01:56:28.112Z,13.72
2022-08-23T01:59:07.769Z,13.26
2022-08-23T02:01:36.689Z,13.66
2022-08-23T02:04:05.733Z,13.67
2022-08-23T02:06:34.832Z,13.41
2022-08-23T02:09:03.884Z,13.52
2022-08-23T02:11:38.062Z,13.59
2022-08-23T02:14:09.504Z,13.25
2022-08-23T02:16:41.405Z,13.52
2022-08-23T02:19:12.857Z,13.38
2022-08-23T02:21:42.276Z,13.50
2022-08-23T02:24:13.512Z,11.92
2022-08-23T02:26:46.349Z,13.51
2022-08-23T02:29:16.008Z,13.40
2022-08-23T02:31:45.609Z,12.91
2022-08-23T02:34:15.709Z,13.46
2022-08-23T02:36:46.448Z,13.45
2022-08-23T02:39:16.209Z,12.92
2022-08-23T02:41:46.589Z,13.43
2022-08-23T02:44:15.390Z,13.42
2022-08-23T02:46:45.673Z,13.38
2022-08-23T02:49:15.757Z,11.62
2022-08-23T02:51:44.418Z,13.28
2022-08-23T02:54:13.148Z,13.18
2022-08-23T02:56:41.698Z,13.23
2022-08-23T02:59:11.885Z,12.74
2022-08-23T03:01:41.737Z,13.25
2022-08-23T03:04:11.905Z,13.25
2022-08-23T03:06:40.953Z,13.25
2022-08-23T03:09:11.486Z,13.24
2022-08-23T03:11:45.071Z,13.25
2022-08-23T03:14:15.465Z,13.12
2022-08-23T03:16:44.207Z,13.22
2022-08-23T03:19:13.158Z,13.22
2022-08-23T03:21:43.415Z,13.19
2022-08-23T03:24:12.125Z,13.17
2022-08-23T03:26:43.309Z,13.13
2022-08-23T03:29:11.920Z,13.06
2022-08-23T03:31:42.290Z,13.01
2022-08-23T03:34:11.066Z,12.78
2022-08-23T03:36:39.686Z,13.01
2022-08-23T03:39:08.181Z,12.77
2022-08-23T03:41:36.800Z,12.98
2022-08-23T03:44:05.965Z,13.03
2022-08-23T03:46:34.508Z,13.01
2022-08-23T03:49:05.542Z,13.00
2022-08-23T03:51:35.540Z,12.93
2022-08-23T03:54:04.573Z,12.70
2022-08-23T03:56:35.321Z,12.90
2022-08-23T03:59:09.244Z,12.91
2022-08-23T04:01:38.163Z,12.90
2022-08-23T04:04:08.137Z,12.89
2022-08-23T04:06:37.172Z,12.87
2022-08-23T04:09:06.198Z,12.88
2022-08-23T04:11:34.819Z,12.87
2022-08-23T04:14:03.554Z,12.80
2022-08-23T04:16:37.518Z,12.71
2022-08-23T04:19:08.813Z,12.88
2022-08-23T04:21:39.609Z,12.86
2022-08-23T04:24:08.285Z,12.85
2022-08-23T04:26:37.115Z,12.82
2022-08-23T04:29:06.376Z,12.79
2022-08-23T04:31:37.144Z,12.65
2022-08-23T04:34:09.449Z,12.55
2022-08-23T04:36:40.509Z,12.67
2022-08-23T04:39:13.349Z,12.54
2022-08-23T04:41:58.979Z,12.20
2022-08-23T04:44:27.560Z,12.73
2022-08-23T04:46:56.293Z,12.61
2022-08-23T04:49:27.860Z,12.15
2022-08-23T04:51:56.640Z,12.73
2022-08-23T04:54:25.241Z,12.74
2022-08-23T04:56:53.914Z,12.77
2022-08-23T04:59:25.681Z,12.79
2022-08-23T05:01:54.099Z,12.83
2022-08-23T05:04:25.272Z,12.52
2022-08-23T05:06:55.255Z,12.86
2022-08-23T05:09:25.234Z,12.74
2022-08-23T05:11:54.147Z,12.90
2022-08-23T05:14:22.669Z,12.93
2022-08-23T05:16:51.354Z,12.54
2022-08-23T05:19:19.924Z,13.02
2022-08-23T05:21:48.427Z,13.03
2022-08-23T05:24:18.717Z,12.91
2022-08-23T05:26:47.424Z,12.62
2022-08-23T05:29:15.977Z,13.08
2022-08-23T05:31:44.401Z,13.10
2022-08-23T05:34:15.637Z,12.94
2022-08-23T05:36:48.314Z,13.06
2022-08-23T05:39:36.256Z,13.17
2022-08-23T05:42:05.673Z,13.20
2022-08-23T05:44:36.275Z,13.23
2022-08-23T05:47:10.379Z,13.28
2022-08-23T05:49:40.751Z,13.31
2022-08-23T05:52:15.436Z,13.36
2022-08-23T05:54:45.620Z,12.20
2022-08-23T05:57:14.201Z,13.45
2022-08-23T05:59:42.798Z,13.52
2022-08-23T06:02:11.488Z,13.60
2022-08-23T06:04:40.053Z,13.05
2022-08-23T06:07:10.089Z,13.70
2022-08-23T06:09:38.781Z,13.12
2022-08-23T06:12:09.289Z,13.82
2022-08-23T06:14:38.675Z,13.86
2022-08-23T06:17:07.425Z,13.92
2022-08-23T06:19:36.056Z,13.70
2022-08-23T06:22:04.808Z,13.77
2022-08-23T06:24:33.545Z,14.13
2022-08-23T06:27:02.077Z,14.20
2022-08-23T06:29:32.108Z,13.98
2022-08-23T06:32:00.649Z,14.32
2022-08-23T06:34:33.767Z,14.37
2022-08-23T06:37:04.279Z,14.40
2022-08-23T06:39:37.399Z,14.31
2022-08-23T06:42:34.512Z,14.50
2022-08-23T06:44:59.016Z,14.57
2022-08-23T06:47:28.105Z,14.61
2022-08-23T06:49:57.804Z,14.67
2022-08-23T06:52:27.679Z,14.52
2022-08-23T06:54:57.639Z,14.79
2022-08-23T06:57:26.616Z,14.56
2022-08-23T06:59:55.244Z,14.89
2022-08-23T07:02:25.413Z,14.70
2022-08-23T07:04:55.955Z,14.78
2022-08-23T07:07:25.221Z,14.84
2022-08-23T07:10:11.097Z,14.54
2022-08-23T07:12:43.537Z,15.14
2022-08-23T07:15:13.898Z,15.19
2022-08-23T07:17:44.196Z,15.22
2022-08-23T07:20:12.714Z,15.27
2022-08-23T07:22:41.418Z,15.34
2022-08-23T07:25:10.206Z,15.46
2022-08-23T07:27:39.610Z,15.49
2022-08-23T07:30:09.483Z,15.54
2022-08-23T07:32:38.021Z,15.53
2022-08-23T07:35:09.920Z,15.71
2022-08-23T07:37:38.731Z,15.77
2022-08-23T07:40:08.921Z,15.85
2022-08-23T07:42:37.901Z,15.87
2022-08-23T07:45:10.042Z,15.94
2022-08-23T07:47:38.689Z,16.00
2022-08-23T07:50:10.206Z,16.03
2022-08-23T07:52:39.013Z,16.06
2022-08-23T07:55:08.570Z,16.10
2022-08-23T07:57:37.857Z,15.78
2022-08-23T08:00:07.421Z,16.17
2022-08-23T08:02:35.911Z,16.20
2022-08-23T08:05:04.493Z,16.22
2022-08-23T08:07:35.533Z,16.29
2022-08-23T08:10:07.565Z,16.31
2022-08-23T08:12:36.655Z,16.36
2022-08-23T08:15:06.112Z,16.40
2022-08-23T08:17:34.701Z,16.47
2022-08-23T08:20:03.338Z,16.50
2022-08-23T08:22:32.096Z,16.57
2022-08-23T08:25:02.866Z,16.60
2022-08-23T08:27:33.971Z,16.37
2022-08-23T08:30:04.222Z,16.75
2022-08-23T08:32:32.802Z,16.81
2022-08-23T08:35:02.557Z,16.89
2022-08-23T08:37:32.305Z,16.74
2022-08-23T08:40:02.617Z,16.96
2022-08-23T08:42:46.561Z,17.02
2022-08-23T08:45:17.549Z,16.99
2022-08-23T08:47:51.513Z,16.90
2022-08-23T08:50:24.371Z,17.12
2022-08-23T08:52:56.963Z,17.15
2022-08-23T08:55:31.569Z,17.25
2022-08-23T08:58:00.887Z,17.31
2022-08-23T09:00:33.980Z,17.11
2022-08-23T09:03:06.558Z,17.42
2022-08-23T09:05:39.895Z,17.46
2022-08-23T09:08:25.282Z,17.55
2022-08-23T09:11:02.602Z,17.59
2022-08-23T09:14:01.665Z,17.68
2022-08-23T09:16:41.821Z,17.40
2022-08-23T09:19:10.469Z,17.82
2022-08-23T09:21:47.116Z,17.89
2022-08-23T09:24:15.778Z,17.92
2022-08-23T09:26:45.990Z,17.98
2022-08-23T09:29:22.527Z,18.05
2022-08-23T09:31:54.110Z,18.09
2022-08-23T09:34:38.545Z,18.16
2022-08-23T09:37:17.759Z,18.24
2022-08-23T09:39:49.764Z,18.30
2022-08-23T09:42:36.089Z,18.40
2022-08-23T09:45:07.352Z,18.46
2022-08-23T09:47:44.643Z,18.56
2022-08-23T09:50:25.708Z,18.65
2022-08-23T09:53:00.541Z,18.32
2022-08-23T09:55:33.948Z,18.84
2022-08-23T09:58:07.455Z,18.91
2022-08-23T10:00:36.540Z,18.93
2022-08-23T10:03:25.180Z,19.09
2022-08-23T10:05:55.824Z,19.18
2022-08-23T10:08:28.908Z,18.78
2022-08-23T10:11:03.935Z,18.99
2022-08-23T10:13:34.731Z,19.43
2022-08-23T10:16:13.312Z,19.54
2022-08-23T10:18:55.080Z,19.39
2022-08-23T10:21:27.261Z,19.69
2022-08-23T10:24:15.424Z,19.64
2022-08-23T10:26:51.509Z,19.85
2022-08-23T10:29:37.699Z,19.89
2022-08-23T10:32:24.134Z,19.92
2022-08-23T10:35:06.508Z,19.63
2022-08-23T10:37:55.119Z,20.12
2022-08-23T10:40:30.461Z,19.94
2022-08-23T10:43:15.543Z,20.28
2022-08-23T10:45:48.045Z,20.36
2022-08-23T10:48:28.762Z,20.38
2022-08-23T10:51:00.984Z,20.34
2022-08-23T10:53:38.013Z,20.20
2022-08-23T10:56:08.331Z,20.54
2022-08-23T10:58:43.998Z,20.66
2022-08-23T11:01:27.313Z,20.70
2022-08-23T11:04:05.193Z,20.72
2022-08-23T11:06:47.180Z,20.85
2022-08-23T11:09:50.291Z,20.92
2022-08-23T11:12:29.402Z,20.90
2022-08-23T11:15:30.882Z,21.08
2022-08-23T11:18:08.264Z,20.92
2022-08-23T11:21:01.491Z,21.11
2022-08-23T11:23:54.543Z,21.19
2022-08-23T11:27:07.893Z,21.27
2022-08-23T11:29:38.560Z,21.34
2022-08-23T11:32:34.865Z,21.36
2022-08-23T11:35:11.361Z,21.46
2022-08-23T11:37:59.893Z,21.49
2022-08-23T11:41:01.860Z,21.68
2022-08-23T11:43:38.187Z,21.64
2022-08-23T11:46:32.247Z,21.87
2022-08-23T11:49:31.996Z,21.93
2022-08-23T11:52:13.676Z,22.00
2022-08-23T11:55:14.051Z,22.04
2022-08-23T11:58:01.624Z,21.30
2022-08-23T12:00:55.281Z,22.13
2022-08-23T12:03:33.845Z,22.39
2022-08-23T12:06:43.576Z,22.51
2022-08-23T12:09:58.446Z,22.54
2022-08-23T12:12:41.866Z,22.39
2022-08-23T12:15:14.908Z,22.60
2022-08-23T12:18:13.043Z,22.72
2022-08-23T12:20:48.216Z,22.82
2022-08-23T12:23:20.464Z,22.87
2022-08-23T12:26:01.185Z,22.83
2022-08-23T12:28:48.105Z,23.07
2022-08-23T12:31:24.090Z,23.09
2022-08-23T12:34:13.211Z,23.11
2022-08-23T12:36:50.255Z,22.83
2022-08-23T12:39:27.218Z,23.16
2022-08-23T12:42:00.521Z,23.19
2022-08-23T12:44:33.966Z,23.16
2022-08-23T12:47:14.062Z,23.42
2022-08-23T12:49:42.973Z,23.51
2022-08-23T12:52:14.008Z,23.47
2022-08-23T12:54:44.913Z,23.36
2022-08-23T12:57:19.740Z,23.61
2022-08-23T13:00:17.407Z,23.75
2022-08-23T13:02:56.475Z,23.91
2022-08-23T13:05:33.672Z,23.66
2022-08-23T13:08:04.785Z,23.87
2022-08-23T13:10:33.517Z,23.93
2022-08-23T13:13:02.831Z,23.81
2022-08-23T13:15:56.284Z,23.87
2022-08-23T13:18:30.597Z,23.79
2022-08-23T13:21:39.750Z,23.88
2022-08-23T13:24:38.020Z,24.01
2022-08-23T13:27:16.585Z,24.02
2022-08-23T13:29:53.764Z,23.96
2022-08-23T13:32:33.034Z,23.77
2022-08-23T13:35:35.248Z,23.98
2022-08-23T13:38:20.878Z,23.85
2022-08-23T13:40:57.169Z,23.86
2022-08-23T13:43:30.373Z,23.94
2022-08-23T13:46:01.878Z,23.96
2022-08-23T13:48:35.034Z,23.92
2022-08-23T13:51:26.387Z,23.75
2022-08-23T13:53:55.917Z,23.88
2022-08-23T13:56:25.692Z,23.89
2022-08-23T13:58:56.747Z,24.03
2022-08-23T14:01:25.826Z,24.04
2022-08-23T14:03:55.877Z,24.05
2022-08-23T14:06:25.739Z,24.11
2022-08-23T14:08:54.280Z,24.19
2022-08-23T14:11:22.914Z,23.24
2022-08-23T14:13:52.235Z,24.15
2022-08-23T14:16:33.810Z,24.31
2022-08-23T14:21:55.486Z,24.40
2022-08-23T14:24:24.193Z,24.05
2022-08-23T14:26:56.168Z,24.59
2022-08-23T14:29:28.415Z,24.41
2022-08-23T14:31:57.650Z,24.47
2022-08-23T14:34:29.460Z,24.42
2022-08-23T14:39:46.730Z,24.40
2022-08-23T14:42:19.234Z,24.40
2022-08-23T14:44:47.961Z,24.39
2022-08-23T14:47:16.711Z,24.46
2022-08-23T14:49:48.287Z,24.50
2022-08-23T14:52:19.876Z,24.44
2022-08-23T14:54:49.496Z,24.42
2022-08-23T14:57:18.526Z,24.52
2022-08-23T14:59:47.101Z,24.57
2022-08-23T15:02:22.798Z,24.57
2022-08-23T15:04:52.841Z,24.58
2022-08-23T15:07:21.569Z,24.68
2022-08-23T15:09:51.909Z,24.70
2022-08-23T15:15:14.013Z,24.35
2022-08-23T15:17:48.906Z,24.76
2022-08-23T15:20:19.666Z,24.51
2022-08-23T15:22:55.093Z,24.47
2022-08-23T15:25:26.720Z,24.47
2022-08-23T15:27:55.357Z,24.35
2022-08-23T15:30:24.701Z,24.22
2022-08-23T15:32:56.477Z,24.13
2022-08-23T15:35:42.310Z,24.00
2022-08-23T15:38:11.565Z,22.84
2022-08-23T15:40:40.333Z,23.78
2022-08-23T15:43:09.125Z,23.70
2022-08-23T15:45:38.440Z,23.67
2022-08-23T15:48:16.248Z,23.41
2022-08-23T15:50:47.962Z,22.92
2022-08-23T15:53:16.992Z,23.56
2022-08-23T15:55:46.754Z,23.50
2022-08-23T15:58:17.841Z,23.40
2022-08-23T16:00:47.372Z,23.33
2022-08-23T16:03:20.275Z,23.27
2022-08-23T16:05:53.868Z,23.21
2022-08-23T16:08:26.401Z,23.17
2022-08-23T16:10:54.993Z,23.16
2022-08-23T16:13:24.789Z,23.17
2022-08-23T16:15:53.971Z,23.14
2022-08-23T16:18:22.457Z,23.11
2022-08-23T16:20:54.472Z,23.09
2022-08-23T16:23:23.876Z,23.07
2022-08-23T16:25:55.885Z,23.05
2022-08-23T16:28:27.693Z,23.00
2022-08-23T16:30:56.276Z,23.00
2022-08-23T16:33:24.777Z,22.90
2022-08-23T16:35:55.073Z,22.87
2022-08-23T16:38:23.581Z,22.87
2022-08-23T16:40:52.037Z,22.82
2022-08-23T16:43:20.623Z,22.81
2022-08-23T16:45:49.235Z,22.76
2022-08-23T16:48:17.861Z,22.64
2022-08-23T16:50:46.597Z,22.60
2022-08-23T16:53:17.038Z,22.41
2022-08-23T16:55:45.898Z,22.50
2022-08-23T16:58:14.621Z,22.46
2022-08-23T17:00:43.705Z,22.40
2022-08-23T17:03:12.476Z,22.33
2022-08-23T17:05:41.330Z,22.27
2022-08-23T17:08:09.781Z,22.21
2022-08-23T17:10:40.201Z,21.65
2022-08-23T17:13:09.857Z,22.09
2022-08-23T17:15:38.661Z,22.01
2022-08-23T17:18:07.838Z,21.99
2022-08-23T17:20:38.551Z,21.92
2022-08-23T17:23:07.786Z,21.86
2022-08-23T17:25:36.889Z,21.81
2022-08-23T17:28:07.517Z,21.40
2022-08-23T17:30:36.382Z,21.72
2022-08-23T17:33:04.954Z,21.67
2022-08-23T17:35:34.396Z,21.61
2022-08-23T17:38:03.610Z,20.42
2022-08-23T17:40:34.356Z,21.55
2022-08-23T17:43:03.763Z,21.52
2022-08-23T17:45:42.033Z,21.45
2022-08-23T17:48:11.122Z,21.37
2022-08-23T17:50:43.796Z,20.76
2022-08-23T17:53:12.625Z,21.30
2022-08-23T17:55:41.729Z,21.25
2022-08-23T17:58:12.032Z,21.21
2022-08-23T18:00:42.089Z,21.16
2022-08-23T18:03:10.695Z,21.06
2022-08-23T18:05:43.061Z,21.03
2022-08-23T18:08:11.740Z,20.97
2022-08-23T18:10:41.041Z,20.92
2022-08-23T18:13:10.109Z,20.89
2022-08-23T18:15:38.768Z,20.83
2022-08-23T18:18:08.884Z,20.75
2022-08-23T18:20:38.182Z,20.70
2022-08-23T18:23:07.063Z,20.65
2022-08-23T18:25:36.965Z,20.59
2022-08-23T18:28:08.742Z,20.52
2022-08-23T18:30:40.597Z,20.47
2022-08-23T18:33:12.634Z,20.40
2022-08-23T18:35:41.743Z,20.34
2022-08-23T18:38:12.610Z,20.31
2022-08-23T18:40:46.530Z,20.26
2022-08-23T18:43:18.214Z,20.18
2022-08-23T18:45:48.265Z,20.13
2022-08-23T18:48:19.788Z,20.07
2022-08-23T18:50:49.103Z,20.01
2022-08-23T18:53:18.546Z,19.95
2022-08-23T18:55:47.453Z,19.88
2022-08-23T18:58:16.330Z,19.85
2022-08-23T19:00:46.157Z,19.79
2022-08-23T19:03:19.321Z,19.73
2022-08-23T19:05:48.404Z,19.70
2022-08-23T19:08:17.263Z,19.66
2022-08-23T19:10:46.469Z,19.61
2022-08-23T19:13:15.474Z,19.56
2022-08-23T19:15:44.066Z,19.49
2022-08-23T19:18:12.591Z,19.46
2022-08-23T19:20:42.526Z,19.39
2022-08-23T19:23:11.636Z,19.35
2022-08-23T19:25:41.225Z,18.72
2022-08-23T19:28:09.816Z,19.28
2022-08-23T19:30:39.256Z,19.23
2022-08-23T19:33:10.633Z,19.09
2022-08-23T19:35:39.996Z,19.11
2022-08-23T19:38:10.270Z,18.83
2022-08-23T19:40:38.818Z,18.74
2022-08-23T19:43:07.433Z,18.96
2022-08-23T19:45:35.987Z,18.92
2022-08-23T19:48:05.425Z,18.59
2022-08-23T19:50:34.409Z,18.82
2022-08-23T19:53:03.519Z,18.51
2022-08-23T19:55:34.278Z,18.73
2022-08-23T19:58:02.757Z,18.70
2022-08-23T20:00:31.816Z,18.67
2022-08-23T20:03:00.561Z,18.63
2022-08-23T20:05:29.066Z,18.58
2022-08-23T20:07:57.602Z,18.53
2022-08-23T20:10:26.533Z,18.46
2022-08-23T20:12:57.052Z,18.43
2022-08-23T20:15:25.501Z,18.38
2022-08-23T20:17:54.928Z,18.33
2022-08-23T20:20:24.037Z,18.12
2022-08-23T20:23:09.673Z,18.19
2022-08-23T20:25:38.159Z,18.22
2022-08-23T20:28:08.504Z,17.82
2022-08-23T20:30:37.708Z,17.87
2022-08-23T20:33:06.430Z,18.09
2022-08-23T20:35:34.839Z,18.05
2022-08-23T20:38:04.773Z,18.03
2022-08-23T20:40:33.309Z,17.97
2022-08-23T20:43:02.380Z,17.93
2022-08-23T20:45:32.958Z,17.31
2022-08-23T20:48:02.033Z,17.85
2022-08-23T20:50:31.494Z,17.82
2022-08-23T20:53:00.186Z,17.76
2022-08-23T20:55:28.876Z,17.73
2022-08-23T20:57:57.285Z,17.70
2022-08-23T21:00:26.160Z,17.68
2022-08-23T21:02:56.448Z,17.65
2022-08-23T21:05:24.830Z,17.62
2022-08-23T21:07:53.558Z,17.43
2022-08-23T21:10:22.205Z,17.54
2022-08-23T21:12:50.689Z,17.46
2022-08-23T21:15:19.722Z,17.48
2022-08-23T21:17:48.470Z,17.41
2022-08-23T21:20:19.160Z,17.36
2022-08-23T21:22:47.680Z,17.31
2022-08-23T21:25:16.897Z,17.10
2022-08-23T21:27:45.802Z,17.03
2022-08-23T21:30:15.776Z,16.92
2022-08-23T21:32:44.213Z,17.01
2022-08-23T21:35:14.041Z,17.08
2022-08-23T21:37:44.381Z,17.03
2022-08-23T21:40:14.177Z,16.83
2022-08-23T21:42:42.860Z,16.95
2022-08-23T21:45:11.821Z,16.56
2022-08-23T21:47:40.751Z,16.63
2022-08-23T21:50:09.799Z,16.72
2022-08-23T21:52:38.265Z,16.82
2022-08-23T21:55:09.704Z,16.78
2022-08-23T21:57:38.170Z,16.77
2022-08-23T22:00:09.730Z,16.61
2022-08-23T22:02:38.574Z,16.73
2022-08-23T22:05:08.317Z,16.68
2022-08-23T22:07:37.040Z,16.62
2022-08-23T22:10:11.105Z,16.57
2022-08-23T22:12:40.473Z,16.51
2022-08-23T22:15:10.203Z,16.36
2022-08-23T22:17:38.791Z,16.26
2022-08-23T22:20:09.632Z,16.42
2022-08-23T22:22:38.624Z,16.38
2022-08-23T22:25:10.158Z,16.26
2022-08-23T22:27:38.961Z,16.31
2022-08-23T22:30:08.673Z,16.28
2022-08-23T22:32:37.294Z,16.28
2022-08-23T22:35:07.113Z,16.25
2022-08-23T22:37:37.305Z,15.93
2022-08-23T22:40:10.296Z,15.86
2022-08-23T22:42:39.042Z,16.13
2022-08-23T22:45:10.594Z,16.12
2022-08-23T22:47:39.224Z,14.64
2022-08-23T22:50:08.490Z,15.73
2022-08-23T22:52:36.973Z,15.76
2022-08-23T22:55:06.147Z,15.99
2022-08-23T22:57:38.067Z,15.95
2022-08-23T23:00:10.904Z,15.96
2022-08-23T23:02:39.957Z,15.80
2022-08-23T23:05:09.738Z,15.25
2022-08-23T23:07:55.861Z,15.50
2022-08-23T23:10:24.464Z,15.77
2022-08-23T23:12:54.333Z,15.77
2022-08-23T23:15:22.771Z,15.78
2022-08-23T23:17:51.346Z,15.76
2022-08-23T23:20:39.191Z,15.72
2022-08-23T23:23:08.216Z,15.70
2022-08-23T23:25:37.671Z,15.69
2022-08-23T23:28:07.824Z,15.68
2022-08-23T23:30:37.844Z,15.66
2022-08-23T23:33:06.880Z,15.15
2022-08-23T23:35:35.592Z,15.64
2022-08-23T23:38:05.347Z,15.28
2022-08-23T23:40:35.086Z,15.56
2022-08-23T23:43:04.013Z,15.56
2022-08-23T23:45:33.922Z,15.58
2022-08-23T23:48:02.689Z,15.56
2022-08-23T23:50:32.472Z,15.54
2022-08-23T23:53:00.986Z,15.53
2022-08-23T23:55:29.437Z,15.33
2022-08-23T23:57:58.767Z,15.47
